Aviation Digital Data Service (ADDS)

Output produced by METARs form (0549 UTC 19 March 2019)
found at http://www.aviationweather.gov/metar/data/
 
Forecast for: PTYA (YAP ISLAND , FM)
Text: PTYA 190526Z 1906/2006 05011KT P6SM FEW018
Forecast period: 0600 UTC 19 March 2019 to 0600 UTC 20 March 2019
Forecast type: FROM: standard forecast or significant change
Winds: from the NE (50 degrees) at 13 MPH (11 knots; 5.7 m/s)
Visibility: 6 or more miles 10+ km)
Ceiling: at least 12,000 feet AGL
Clouds: few clouds at 1800 feet AGL
Weather: no significant weather forecast for this period